Time;durP1;ratioP1;P1;durP2;ratioP2;P2;SDS_P1;SDS_P2;PMS_P1;PMS_P2;Temp;Humidity;BMP_temperature;BMP_pressure;BME280_temperature;BME280_humidity;BME280_pressure;Samples;Min_cycle;Max_cycle;Signal;HPM_P1;HPM_P2
2022/08/29 00:00:18;;;;;;;1999.90;999.90;;;;;;;17.15;72.81;98852.13;4168504;28;20648;-48
2022/08/29 00:02:21;;;;;;;1999.90;999.90;;;;;;;17.04;72.95;98856.03;4168942;28;20221;-48
2022/08/29 00:04:23;;;;;;;1999.90;999.90;;;;;;;16.86;73.38;98845.63;4153299;28;20690;-49
2022/08/29 00:06:25;;;;;;;1999.90;999.90;;;;;;;16.83;73.65;98851.69;4152655;28;20209;-48
2022/08/29 00:08:27;;;;;;;1999.90;999.90;;;;;;;16.82;73.57;98849.25;4159321;28;20634;-48
2022/08/29 00:10:34;;;;;;;1999.90;999.90;;;;;;;16.67;74.07;98844.56;4153627;28;20209;-47
2022/08/29 00:12:37;;;;;;;1999.90;999.90;;;;;;;16.71;73.75;98853.97;4154677;28;20741;-48
2022/08/29 00:14:38;;;;;;;1999.90;999.90;;;;;;;16.73;73.85;98846.22;4137701;28;20207;-48
2022/08/29 00:16:40;;;;;;;1999.90;999.90;;;;;;;16.74;73.65;98856.16;4152117;28;20574;-48
2022/08/29 00:18:42;;;;;;;1999.90;999.90;;;;;;;16.81;73.73;98848.41;4156754;28;20209;-48
2022/08/29 00:20:45;;;;;;;1999.90;999.90;;;;;;;16.76;74.20;98851.16;4156001;28;20204;-48
2022/08/29 00:22:47;;;;;;;1999.90;999.90;;;;;;;16.74;74.00;98852.56;4150028;28;20216;-47
2022/08/29 00:24:48;;;;;;;1999.90;999.90;;;;;;;16.72;74.13;98847.34;4152785;28;20236;-48
2022/08/29 00:26:51;;;;;;;1999.90;999.90;;;;;;;16.68;74.05;98849.00;4156282;28;20590;-48
2022/08/29 00:28:52;;;;;;;1999.90;999.90;;;;;;;16.68;74.20;98846.22;4154653;28;20704;-50
2022/08/29 00:30:54;;;;;;;1999.90;999.90;;;;;;;16.63;74.47;98857.28;4168958;28;20209;-48
2022/08/29 00:32:56;;;;;;;1999.90;999.90;;;;;;;16.62;74.62;98855.63;4149060;28;20212;-48
2022/08/29 00:34:58;;;;;;;1999.90;999.90;;;;;;;16.58;74.66;98856.47;4169568;28;20743;-48
2022/08/29 00:36:59;;;;;;;1999.90;999.90;;;;;;;16.25;75.30;98855.16;4160474;28;20231;-48
2022/08/29 00:39:01;;;;;;;1999.90;999.90;;;;;;;16.36;74.83;98851.25;4155477;28;20686;-49
2022/08/29 00:41:04;;;;;;;1999.90;999.90;;;;;;;16.28;75.14;98854.56;4171638;28;20266;-48
2022/08/29 00:43:07;;;;;;;1999.90;999.90;;;;;;;16.34;74.86;98859.00;4161294;28;20208;-48
2022/08/29 00:45:13;;;;;;;1999.90;999.90;;;;;;;16.37;74.66;98858.41;4151171;28;20245;-48
2022/08/29 00:47:21;;;;;;;1999.90;999.90;;;;;;;16.37;74.83;98863.94;4161151;28;20236;-48
2022/08/29 00:49:50;;;;;;;1999.90;999.90;;;;;;;16.38;74.69;98865.66;4169638;28;20231;-48
2022/08/29 00:51:53;;;;;;;1999.90;999.90;;;;;;;16.37;74.49;98863.94;4152116;28;20585;-48
2022/08/29 00:54:04;;;;;;;1999.90;999.90;;;;;;;16.38;74.46;98865.66;4186947;28;20211;-48
2022/08/29 00:56:07;;;;;;;1999.90;999.90;;;;;;;16.34;74.47;98864.50;4153307;28;20268;-48
2022/08/29 00:58:15;;;;;;;1999.90;999.90;;;;;;;16.31;74.46;98870.59;4182650;28;20227;-48
2022/08/29 01:00:18;;;;;;;1999.90;999.90;;;;;;;16.30;74.41;98860.63;4161679;28;20208;-48
2022/08/29 01:02:19;;;;;;;1999.90;999.90;;;;;;;16.28;74.51;98865.63;4156716;28;20212;-47
2022/08/29 01:04:21;;;;;;;1999.90;999.90;;;;;;;16.22;75.16;98866.72;4137403;28;20627;-48
2022/08/29 01:06:26;;;;;;;1999.90;999.90;;;;;;;16.21;75.15;98867.84;4152262;28;20213;-47
2022/08/29 01:08:29;;;;;;;1999.90;999.90;;;;;;;16.20;74.88;98860.66;4159788;28;20251;-47
2022/08/29 01:12:50;;;;;;;1999.90;999.90;;;;;;;16.13;74.99;98868.41;4168895;28;20581;-48
2022/08/29 01:14:55;;;;;;;1999.90;999.90;;;;;;;16.14;75.04;98864.53;4156726;28;20653;-48
2022/08/29 01:16:59;;;;;;;1999.90;999.90;;;;;;;16.09;75.08;98861.78;4156038;28;20237;-47
2022/08/29 01:19:07;;;;;;;1999.90;999.90;;;;;;;16.09;75.08;98872.00;4152335;28;20311;-49
2022/08/29 01:21:20;;;;;;;1999.90;999.90;;;;;;;16.10;75.29;98884.69;4143732;28;20283;-47
2022/08/29 01:23:45;;;;;;;1999.90;999.90;;;;;;;16.05;75.88;98880.00;4183667;28;20261;-48
2022/08/29 01:25:49;;;;;;;1999.90;999.90;;;;;;;16.04;75.93;98875.56;4182162;28;20258;-48
2022/08/29 01:28:00;;;;;;;1999.90;999.90;;;;;;;15.99;76.20;98870.06;4183482;28;20282;-49
2022/08/29 01:30:03;;;;;;;1999.90;999.90;;;;;;;15.95;76.27;98871.72;4169479;28;20263;-48
2022/08/29 01:32:06;;;;;;;1999.90;999.90;;;;;;;15.93;76.16;98876.69;4169019;28;20682;-48
2022/08/29 01:34:10;;;;;;;1999.90;999.90;;;;;;;15.87;76.21;98874.19;4152150;28;20249;-48
2022/08/29 01:36:18;;;;;;;1999.90;999.90;;;;;;;15.87;75.75;98877.78;4159960;28;20217;-48
2022/08/29 01:38:26;;;;;;;1999.90;999.90;;;;;;;15.87;76.04;98883.31;4184930;28;20257;-48
2022/08/29 01:40:29;;;;;;;1999.90;999.90;;;;;;;15.86;75.89;98878.91;4182585;28;20214;-49
2022/08/29 01:42:31;;;;;;;1999.90;999.90;;;;;;;15.80;75.99;98874.47;4155484;28;20670;-48
2022/08/29 01:44:38;;;;;;;1999.90;999.90;;;;;;;15.81;76.21;98870.59;4162024;28;20219;-48
2022/08/29 01:46:40;;;;;;;1999.90;999.90;;;;;;;15.82;76.02;98871.44;4186677;28;20262;-48
2022/08/29 01:48:43;;;;;;;1999.90;999.90;;;;;;;15.77;76.25;98876.97;4158601;28;20213;-49
2022/08/29 01:50:46;;;;;;;1999.90;999.90;;;;;;;15.76;76.03;98876.13;4152935;28;20244;-49
2022/08/29 01:52:47;;;;;;;1999.90;999.90;;;;;;;15.78;75.95;98882.22;4168769;28;20204;-48
2022/08/29 01:54:49;;;;;;;1999.90;999.90;;;;;;;15.67;76.06;98874.16;4154658;28;20678;-48
2022/08/29 01:56:52;;;;;;;1999.90;999.90;;;;;;;15.53;76.66;98873.88;4166892;28;20228;-48
2022/08/29 01:58:55;;;;;;;1999.90;999.90;;;;;;;15.56;76.41;98876.09;4151349;28;20295;-48
2022/08/29 02:00:57;;;;;;;1999.90;999.90;;;;;;;15.57;76.55;98879.69;4159648;28;20207;-48
2022/08/29 02:03:02;;;;;;;1999.90;999.90;;;;;;;15.57;76.70;98882.44;4153019;28;20207;-48
2022/08/29 02:05:04;;;;;;;1999.90;999.90;;;;;;;15.54;76.36;98878.31;4159910;28;20208;-48
2022/08/29 02:07:06;;;;;;;1999.90;999.90;;;;;;;15.54;76.62;98880.22;4170560;28;20286;-48
2022/08/29 02:09:13;;;;;;;1999.90;999.90;;;;;;;15.58;76.72;98882.19;4156342;28;20221;-48
2022/08/29 02:11:16;;;;;;;1999.90;999.90;;;;;;;15.45;77.30;98882.69;4157720;28;20236;-48
2022/08/29 02:13:18;;;;;;;1999.90;999.90;;;;;;;15.42;77.41;98879.66;4155022;28;20212;-48
2022/08/29 02:15:20;;;;;;;1999.90;999.90;;;;;;;15.35;77.86;98877.16;4172190;28;20627;-50
2022/08/29 02:17:22;;;;;;;1999.90;999.90;;;;;;;15.33;77.83;98879.34;4159515;28;20231;-48
2022/08/29 02:19:24;;;;;;;1999.90;999.90;;;;;;;15.24;77.82;98886.44;4155180;28;20204;-48
2022/08/29 02:21:27;;;;;;;1999.90;999.90;;;;;;;15.20;78.16;98885.34;4163118;28;20210;-48
2022/08/29 02:23:30;;;;;;;1999.90;999.90;;;;;;;15.28;77.75;98893.09;4185841;28;20673;-49
2022/08/29 02:25:41;;;;;;;1999.90;999.90;;;;;;;15.28;77.86;98904.13;4141052;28;20667;-48
2022/08/29 02:27:43;;;;;;;1999.90;999.90;;;;;;;15.32;77.57;98899.78;4158973;28;20815;-48
2022/08/29 02:29:44;;;;;;;1999.90;999.90;;;;;;;15.36;77.51;98906.38;4157487;28;20228;-48
2022/08/29 02:31:46;;;;;;;1999.90;999.90;;;;;;;15.36;77.35;98906.38;4187518;28;20253;-48
2022/08/29 02:33:49;;;;;;;1999.90;999.90;;;;;;;15.35;77.24;98907.47;4186816;28;20212;-48
2022/08/29 02:35:52;;;;;;;1999.90;999.90;;;;;;;15.36;76.91;98905.56;4157490;28;20307;-49
2022/08/29 02:37:53;;;;;;;1999.90;999.90;;;;;;;15.33;77.77;98906.94;4174542;28;20597;-49
2022/08/29 02:39:55;;;;;;;1999.90;999.90;;;;;;;15.33;77.25;98912.44;4160565;28;20650;-48
2022/08/29 02:41:57;;;;;;;1999.90;999.90;;;;;;;15.33;78.06;98898.66;4156219;28;20208;-48
2022/08/29 02:43:58;;;;;;;1999.90;999.90;;;;;;;15.26;78.18;98900.81;4157430;28;20209;-48
2022/08/29 02:46:01;;;;;;;1999.90;999.90;;;;;;;15.23;78.59;98901.34;4159341;28;20682;-49
2022/08/29 02:48:03;;;;;;;1999.90;999.90;;;;;;;15.19;78.60;98894.72;4161487;28;20792;-48
2022/08/29 02:50:07;;;;;;;1999.90;999.90;;;;;;;15.19;78.71;98888.38;4150792;28;20225;-48
2022/08/29 02:52:11;;;;;;;1999.90;999.90;;;;;;;15.14;78.47;98889.19;4171231;28;20212;-49
2022/08/29 02:54:13;;;;;;;1999.90;999.90;;;;;;;15.16;78.85;98892.50;4170779;28;20566;-49
2022/08/29 02:56:16;;;;;;;1999.90;999.90;;;;;;;15.20;78.81;98901.91;4168267;28;20208;-50
2022/08/29 02:58:18;;;;;;;1999.90;999.90;;;;;;;15.18;78.89;98897.75;4184739;28;20228;-48
2022/08/29 03:00:24;;;;;;;1999.90;999.90;;;;;;;15.16;78.89;98889.72;4161400;28;20220;-49
2022/08/29 03:02:26;;;;;;;1999.90;999.90;;;;;;;15.10;79.16;98890.81;4156959;28;20295;-48
2022/08/29 03:04:28;;;;;;;1999.90;999.90;;;;;;;15.10;78.64;98884.50;4140282;28;20209;-48
2022/08/29 03:06:30;;;;;;;1999.90;999.90;;;;;;;15.07;78.77;98885.84;4154600;28;20264;-48
2022/08/29 03:08:31;;;;;;;1999.90;999.90;;;;;;;15.03;79.04;98893.00;4161110;28;20355;-49
2022/08/29 03:10:33;;;;;;;1999.90;999.90;;;;;;;15.06;78.93;98884.19;4187911;28;20258;-48
2022/08/29 03:12:36;;;;;;;1999.90;999.90;;;;;;;15.04;78.72;98886.38;4172899;28;20662;-49
2022/08/29 03:14:38;;;;;;;1999.90;999.90;;;;;;;15.01;78.58;98886.94;4152826;28;20220;-48
2022/08/29 03:16:39;;;;;;;1999.90;999.90;;;;;;;14.86;78.96;98888.78;4155438;28;20217;-48
2022/08/29 03:18:41;;;;;;;1999.90;999.90;;;;;;;14.88;79.23;98886.56;4145835;28;20269;-48
2022/08/29 03:20:44;;;;;;;1999.90;999.90;;;;;;;14.84;78.88;98883.53;4152585;28;20200;-49
2022/08/29 03:22:48;;;;;;;1999.90;999.90;;;;;;;14.80;79.12;98885.19;4153276;28;20243;-48
2022/08/29 03:24:49;;;;;;;1999.90;999.90;;;;;;;14.79;78.91;98883.53;4168848;28;20216;-48
2022/08/29 03:26:51;;;;;;;1999.90;999.90;;;;;;;14.75;79.08;98871.38;4152699;28;20225;-48
2022/08/29 03:28:57;;;;;;;1999.90;999.90;;;;;;;14.75;79.27;98879.63;4154410;28;20232;-49
2022/08/29 03:30:59;;;;;;;1999.90;999.90;;;;;;;14.75;79.33;98876.03;4156666;28;20303;-49
2022/08/29 03:33:01;;;;;;;1999.90;999.90;;;;;;;14.73;79.21;98873.56;4186500;28;20692;-48
2022/08/29 03:35:03;;;;;;;1999.90;999.90;;;;;;;14.71;79.54;98864.72;4155500;28;20228;-48
2022/08/29 03:37:05;;;;;;;1999.90;999.90;;;;;;;14.72;79.28;98877.44;4170232;28;20227;-48
2022/08/29 03:39:08;;;;;;;1999.90;999.90;;;;;;;14.71;79.28;98870.25;4168463;28;20208;-49
2022/08/29 03:41:10;;;;;;;1999.90;999.90;;;;;;;14.70;79.16;98879.59;4188775;28;20216;-48
2022/08/29 03:43:12;;;;;;;1999.90;999.90;;;;;;;14.70;79.49;98878.78;4157730;28;20740;-49
2022/08/29 03:45:17;;;;;;;1999.90;999.90;;;;;;;14.72;79.55;98882.94;4169317;28;20209;-48
2022/08/29 03:47:18;;;;;;;1999.90;999.90;;;;;;;14.77;79.06;98876.63;4170523;28;20225;-49
2022/08/29 03:49:20;;;;;;;1999.90;999.90;;;;;;;14.79;79.12;98880.78;4151314;28;20718;-48
2022/08/29 03:51:22;;;;;;;1999.90;999.90;;;;;;;14.78;78.91;98873.63;4184263;28;20204;-48
2022/08/29 03:53:31;;;;;;;1999.90;999.90;;;;;;;14.79;78.89;98878.03;4159319;28;20218;-49
2022/08/29 03:55:33;;;;;;;1999.90;999.90;;;;;;;14.85;78.77;98876.09;4147248;28;20205;-49
2022/08/29 03:57:34;;;;;;;1999.90;999.90;;;;;;;14.83;79.11;98881.06;4154229;28;20779;-49
2022/08/29 03:59:36;;;;;;;1999.90;999.90;;;;;;;14.77;79.40;98885.69;4153555;28;20603;-48
2022/08/29 04:01:38;;;;;;;1999.90;999.90;;;;;;;14.74;79.37;98875.22;4153132;28;20206;-48
2022/08/29 04:03:40;;;;;;;1999.90;999.90;;;;;;;14.71;79.56;98886.75;4167656;28;20574;-48
2022/08/29 04:05:41;;;;;;;1999.90;999.90;;;;;;;14.70;79.55;98882.34;4145274;28;20229;-48
2022/08/29 04:07:50;;;;;;;1999.90;999.90;;;;;;;14.72;79.49;98877.44;4168227;28;20259;-48
2022/08/29 04:09:51;;;;;;;1999.90;999.90;;;;;;;14.70;80.00;98879.59;4168948;28;20311;-49
2022/08/29 04:11:53;;;;;;;1999.90;999.90;;;;;;;14.67;80.40;98874.66;4160694;28;20209;-48
2022/08/29 04:13:55;;;;;;;1999.90;999.90;;;;;;;14.69;81.04;98891.72;4169598;28;20201;-48
2022/08/29 04:15:57;;;;;;;1999.90;999.90;;;;;;;14.67;81.02;98882.06;4155207;28;20217;-48
2022/08/29 04:18:01;;;;;;;1999.90;999.90;;;;;;;14.65;81.17;98881.50;4155497;28;20239;-48
2022/08/29 04:20:05;;;;;;;1999.90;999.90;;;;;;;14.40;81.36;98879.44;4167644;28;20272;-49
2022/08/29 04:22:07;;;;;;;1999.90;999.90;;;;;;;14.37;81.82;98876.41;4159466;28;20208;-49
2022/08/29 04:24:09;;;;;;;1999.90;999.90;;;;;;;14.35;82.04;98878.56;4168321;28;20263;-49
2022/08/29 04:26:13;;;;;;;1999.90;999.90;;;;;;;14.47;81.27;98880.03;4154236;28;20211;-49
2022/08/29 04:28:35;;;;;;;1999.90;999.90;;;;;;;14.46;81.07;98881.13;4184606;28;20209;-48
2022/08/29 04:30:38;;;;;;;1999.90;999.90;;;;;;;14.43;81.47;98884.41;4154020;28;20241;-48
2022/08/29 04:32:40;;;;;;;1999.90;999.90;;;;;;;14.44;81.41;98883.31;4152470;28;20315;-48
2022/08/29 04:34:42;;;;;;;1999.90;999.90;;;;;;;14.47;81.24;98888.31;4150122;28;20650;-48
2022/08/29 04:36:46;;;;;;;1999.90;999.90;;;;;;;14.54;81.01;98890.81;4184841;28;20242;-49
2022/08/29 04:38:47;;;;;;;1999.90;999.90;;;;;;;14.60;80.63;98885.06;4155890;28;20212;-48
2022/08/29 04:40:49;;;;;;;1999.90;999.90;;;;;;;14.67;80.37;98888.41;4171081;28;20204;-49
2022/08/29 04:42:51;;;;;;;1999.90;999.90;;;;;;;14.70;80.45;98885.13;4170035;28;20262;-48
2022/08/29 04:44:52;;;;;;;1999.90;999.90;;;;;;;14.76;80.79;98889.56;4159872;28;20259;-48
2022/08/29 04:46:54;;;;;;;1999.90;999.90;;;;;;;14.78;80.87;98892.06;4150518;28;20233;-48
2022/08/29 04:48:56;;;;;;;1999.90;999.90;;;;;;;14.81;80.92;98892.34;4156094;28;20291;-49
2022/08/29 04:51:04;;;;;;;1999.90;999.90;;;;;;;14.80;81.36;98889.84;4154053;28;20633;-49
2022/08/29 04:53:06;;;;;;;1999.90;999.90;;;;;;;14.83;81.06;98901.16;4152690;28;20244;-48
2022/08/29 04:55:09;;;;;;;1999.90;999.90;;;;;;;14.87;80.84;98899.53;4185130;28;20216;-48
2022/08/29 04:57:10;;;;;;;1999.90;999.90;;;;;;;14.89;80.55;98891.00;4152118;28;20229;-49
2022/08/29 04:59:13;;;;;;;1999.90;999.90;;;;;;;14.92;80.58;98907.84;4152060;28;20215;-48
2022/08/29 05:01:18;;;;;;;1999.90;999.90;;;;;;;14.92;80.42;98894.06;4157508;28;20288;-48
2022/08/29 05:03:21;;;;;;;1999.90;999.90;;;;;;;14.93;80.37;98895.72;4168526;28;20213;-48
2022/08/29 05:05:24;;;;;;;1999.90;999.90;;;;;;;14.94;80.63;98905.63;4166467;28;20670;-48
2022/08/29 05:07:26;;;;;;;1999.90;999.90;;;;;;;14.88;81.35;98903.94;4183056;28;20231;-48
2022/08/29 05:09:28;;;;;;;1999.90;999.90;;;;;;;14.98;80.84;98903.19;4160479;28;20209;-48
2022/08/29 05:11:30;;;;;;;1999.90;999.90;;;;;;;14.80;81.59;98907.22;4137096;28;20703;-49
2022/08/29 05:13:32;;;;;;;1999.90;999.90;;;;;;;14.77;81.27;98906.94;4183401;28;20279;-49
2022/08/29 05:15:37;;;;;;;1999.90;999.90;;;;;;;14.67;81.47;98895.84;4152159;28;20369;-49
2022/08/29 05:17:39;;;;;;;1999.90;999.90;;;;;;;14.71;81.58;98897.78;4170134;28;20232;-48
2022/08/29 05:19:42;;;;;;;1999.90;999.90;;;;;;;14.79;81.21;98900.06;4148487;28;20232;-48
2022/08/29 05:21:45;;;;;;;1999.90;999.90;;;;;;;14.91;80.72;98911.66;4153651;28;20877;-48
2022/08/29 05:23:50;;;;;;;1999.90;999.90;;;;;;;14.92;80.63;98899.56;4165404;28;20412;-48
2022/08/29 05:25:57;;;;;;;1999.90;999.90;;;;;;;14.94;80.63;98905.63;4154010;28;20256;-48
2022/08/29 05:27:59;;;;;;;1999.90;999.90;;;;;;;14.96;80.59;98900.69;4169183;28;20224;-48
2022/08/29 05:30:01;;;;;;;1999.90;999.90;;;;;;;15.03;80.64;98906.78;4160080;28;20625;-48
2022/08/29 05:32:03;;;;;;;1999.90;999.90;;;;;;;15.05;80.51;98903.75;4159617;28;20217;-48
2022/08/29 05:34:04;;;;;;;1999.90;999.90;;;;;;;15.11;80.99;98909.00;4183305;28;20211;-48
2022/08/29 05:36:26;;;;;;;1999.90;999.90;;;;;;;15.11;80.56;98908.19;4157615;28;20246;-48
2022/08/29 05:38:28;;;;;;;1999.90;999.90;;;;;;;15.11;80.12;98913.72;4159151;28;20641;-48
2022/08/29 05:40:30;;;;;;;1999.90;999.90;;;;;;;15.12;80.31;98909.84;4154608;28;20625;-48
2022/08/29 05:42:31;;;;;;;1999.90;999.90;;;;;;;15.13;81.36;98906.84;4153706;28;20252;-48
2022/08/29 05:44:34;;;;;;;1999.90;999.90;;;;;;;15.13;81.63;98912.34;4158412;28;20217;-48
2022/08/29 05:46:36;;;;;;;1999.90;999.90;;;;;;;15.12;81.57;98905.19;4159838;28;20671;-48
2022/08/29 05:48:40;;;;;;;1999.90;999.90;;;;;;;15.16;80.71;98911.78;4152276;28;20283;-48
2022/08/29 05:50:43;;;;;;;1999.90;999.90;;;;;;;15.18;80.48;98915.13;4151524;28;20701;-48
2022/08/29 05:52:45;;;;;;;1999.90;999.90;;;;;;;15.20;80.97;98918.44;4154677;28;20213;-48
2022/08/29 05:54:47;;;;;;;1999.90;999.90;;;;;;;15.23;81.06;98928.91;4158877;28;20204;-48
2022/08/29 05:56:50;;;;;;;1999.90;999.90;;;;;;;15.28;80.90;98925.34;4151879;28;20236;-49
2022/08/29 05:58:52;;;;;;;1999.90;999.90;;;;;;;15.31;82.04;98931.13;4151676;28;20248;-48
2022/08/29 06:00:54;;;;;;;1999.90;999.90;;;;;;;15.16;80.84;98928.34;4149588;28;20606;-49
2022/08/29 06:02:56;;;;;;;1999.90;999.90;;;;;;;15.12;80.65;98932.75;4152781;28;20971;-48
2022/08/29 06:04:58;;;;;;;1999.90;999.90;;;;;;;15.26;80.03;98944.94;4150915;28;20217;-48
2022/08/29 06:07:00;;;;;;;1999.90;999.90;;;;;;;15.36;79.31;98935.91;4167682;28;20220;-48
2022/08/29 06:09:02;;;;;;;1999.90;999.90;;;;;;;15.65;80.69;98932.41;4154800;28;20236;-48
2022/08/29 06:11:04;;;;;;;1999.90;999.90;;;;;;;15.88;80.17;98928.28;4153072;28;20267;-48
2022/08/29 06:13:05;;;;;;;1999.90;999.90;;;;;;;16.14;80.24;98930.81;4159364;28;20284;-48
2022/08/29 06:15:08;;;;;;;1999.90;999.90;;;;;;;16.32;79.67;98927.50;4186135;28;20748;-48
2022/08/29 06:17:10;;;;;;;1999.90;999.90;;;;;;;16.46;76.80;98923.09;4165781;28;20232;-48
2022/08/29 06:19:12;;;;;;;1999.90;999.90;;;;;;;16.64;76.87;98928.03;4164775;28;20208;-48
2022/08/29 06:21:14;;;;;;;1999.90;999.90;;;;;;;16.75;74.53;98931.63;4182608;28;20212;-47
2022/08/29 06:23:16;;;;;;;1999.90;999.90;;;;;;;16.84;73.86;98936.28;4151337;28;20252;-48
2022/08/29 06:25:17;;;;;;;1999.90;999.90;;;;;;;16.97;74.21;98938.47;4151978;28;20268;-48
2022/08/29 06:27:39;;;;;;;1999.90;999.90;;;;;;;17.23;73.87;98935.34;4158861;28;20231;-49
2022/08/29 06:29:41;;;;;;;1999.90;999.90;;;;;;;17.55;73.79;98932.19;4140064;28;20206;-48
2022/08/29 06:31:44;;;;;;;1999.90;999.90;;;;;;;18.00;72.29;98940.22;4150272;28;20228;-48
2022/08/29 06:33:49;;;;;;;1999.90;999.90;;;;;;;18.12;71.72;98937.91;4151226;28;20205;-47
2022/08/29 06:35:51;;;;;;;1619.95;819.88;;;;;;;18.08;71.04;98939.59;4183853;28;20205;-47
2022/08/29 06:37:53;;;;;;;1999.90;999.90;;;;;;;18.10;70.56;98938.19;4170740;28;20286;-48
2022/08/29 06:39:55;;;;;;;1921.90;940.90;;;;;;;18.07;70.23;98943.50;4153623;28;20205;-47
2022/08/29 06:41:56;;;;;;;1941.53;977.05;;;;;;;18.00;70.74;98946.59;4169681;28;20208;-46
2022/08/29 06:43:59;;;;;;;1999.90;999.90;;;;;;;17.58;67.93;98942.69;4152024;28;20696;-50
2022/08/29 06:46:01;;;;;;;1999.90;999.90;;;;;;;17.28;68.76;98948.31;4183243;28;20341;-51
2022/08/29 06:48:03;;;;;;;1999.90;999.90;;;;;;;17.10;69.33;98949.78;4149660;28;20252;-51
2022/08/29 06:50:05;;;;;;;1999.90;999.90;;;;;;;16.92;70.37;98955.91;4149516;28;20213;-50
2022/08/29 06:52:07;;;;;;;1999.90;999.90;;;;;;;16.86;70.76;98955.38;4185638;28;20234;-50
2022/08/29 06:54:10;;;;;;;1999.90;999.90;;;;;;;16.82;70.75;98952.31;4153854;28;20209;-50
2022/08/29 06:56:13;;;;;;;1999.90;999.90;;;;;;;16.80;70.05;98951.78;4186809;28;20270;-50
2022/08/29 06:58:14;;;;;;;1999.90;999.90;;;;;;;16.83;70.20;98945.69;4158483;28;20906;-49
2022/08/29 07:00:17;;;;;;;1800.20;923.53;;;;;;;16.85;70.54;98945.41;4184460;28;20274;-49
2022/08/29 07:02:23;;;;;;;1999.90;999.90;;;;;;;16.87;71.01;98946.78;4146075;28;20272;-50
2022/08/29 07:04:25;;;;;;;1999.90;999.90;;;;;;;17.03;70.88;98951.16;4181366;28;20676;-50
2022/08/29 07:06:28;;;;;;;1999.90;999.90;;;;;;;17.13;70.12;98951.97;4169408;28;20212;-49
2022/08/29 07:08:30;;;;;;;1999.90;999.90;;;;;;;17.23;70.03;98949.19;4168796;28;20498;-50
2022/08/29 07:10:32;;;;;;;1792.57;905.85;;;;;;;17.34;69.44;98949.97;4171394;28;20266;-51
2022/08/29 07:12:34;;;;;;;1991.63;999.90;;;;;;;17.36;69.10;98947.72;4154248;28;20212;-49
2022/08/29 07:14:36;;;;;;;1999.90;999.90;;;;;;;17.47;69.32;98943.84;4169691;28;20207;-49
2022/08/29 07:16:39;;;;;;;1861.57;945.95;;;;;;;17.42;69.19;98952.16;4150015;28;20260;-49
2022/08/29 07:18:44;;;;;;;1858.82;962.47;;;;;;;17.49;69.36;98955.47;4161851;28;20291;-50
2022/08/29 07:20:46;;;;;;;1859.05;954.80;;;;;;;17.52;68.61;98954.91;4153356;28;20642;-49
2022/08/29 07:22:50;;;;;;;1838.55;973.50;;;;;;;17.63;68.85;98950.94;4154609;28;20209;-49
2022/08/29 07:24:54;;;;;;;1999.90;999.90;;;;;;;18.12;70.16;98954.53;4156066;28;20209;-49
2022/08/29 07:26:56;;;;;;;1999.90;999.90;;;;;;;18.49;69.45;98946.50;4154850;28;20777;-48
2022/08/29 07:29:00;;;;;;;1999.90;999.90;;;;;;;19.14;67.90;98951.41;4168601;28;20205;-48
2022/08/29 07:31:04;;;;;;;1920.57;947.55;;;;;;;19.41;66.90;98940.56;4167908;28;20255;-48
2022/08/29 07:33:06;;;;;;;1999.90;999.90;;;;;;;19.66;65.22;98954.13;4170469;28;20612;-48
2022/08/29 07:35:08;;;;;;;1999.90;999.90;;;;;;;20.02;65.50;98946.94;4159851;28;20601;-48
2022/08/29 07:37:14;;;;;;;1999.90;999.90;;;;;;;20.10;64.31;98944.34;4162352;28;20339;-48
2022/08/29 07:39:18;;;;;;;1999.90;999.90;;;;;;;20.37;64.10;98954.78;4140401;28;20219;-48
2022/08/29 07:41:20;;;;;;;1999.90;999.90;;;;;;;20.25;62.70;98954.41;4167603;28;20208;-47
2022/08/29 07:43:21;;;;;;;1999.90;999.90;;;;;;;19.96;61.12;98948.97;4150150;28;20590;-49
2022/08/29 07:45:28;;;;;;;1999.90;999.90;;;;;;;19.99;61.66;98953.09;4155154;28;20587;-48
2022/08/29 07:47:30;;;;;;;1999.90;999.90;;;;;;;19.81;60.10;98951.97;4159863;28;20718;-47
2022/08/29 07:49:32;;;;;;;1999.90;999.90;;;;;;;19.71;60.53;98957.66;4160379;28;20208;-48
2022/08/29 07:51:42;;;;;;;1999.90;999.90;;;;;;;19.88;61.56;98951.59;4162424;28;20287;-48
2022/08/29 07:53:45;;;;;;;1999.90;999.90;;;;;;;20.04;61.83;98948.28;4169779;28;20564;-48
2022/08/29 07:55:47;;;;;;;1999.90;999.90;;;;;;;19.84;59.96;98956.09;4169411;28;20674;-48
2022/08/29 07:57:51;;;;;;;1999.90;999.90;;;;;;;19.86;60.58;98956.63;4155220;28;20669;-47
2022/08/29 07:59:53;;;;;;;1999.90;999.90;;;;;;;20.04;60.81;98955.81;4150735;28;20205;-47
2022/08/29 08:01:54;;;;;;;1999.90;999.90;;;;;;;20.19;59.45;98952.81;4153023;28;20205;-48
2022/08/29 08:03:57;;;;;;;1999.90;999.90;;;;;;;20.52;60.41;98951.72;4184376;28;20643;-47
2022/08/29 08:05:59;;;;;;;1999.90;999.90;;;;;;;20.35;59.01;98957.00;4156697;28;20204;-47
2022/08/29 08:08:08;;;;;;;1999.90;999.90;;;;;;;20.58;60.59;98950.53;4183026;28;20237;-47
2022/08/29 08:10:18;;;;;;;1999.90;999.90;;;;;;;20.97;59.80;98956.53;4167229;28;20215;-47
2022/08/29 08:12:21;;;;;;;1999.90;999.90;;;;;;;21.02;57.78;98956.41;4161819;28;20359;-48
2022/08/29 08:14:23;;;;;;;1999.90;999.90;;;;;;;21.05;58.08;98947.47;4160755;28;20223;-47
2022/08/29 08:16:36;;;;;;;1999.90;999.90;;;;;;;21.15;58.22;98950.88;4161396;28;20217;-48
2022/08/29 08:18:39;;;;;;;1999.90;999.90;;;;;;;21.12;56.59;98954.25;4153411;28;20209;-47
2022/08/29 08:20:47;;;;;;;1999.90;999.90;;;;;;;21.35;56.20;98961.63;4183737;28;20214;-47
2022/08/29 08:22:48;;;;;;;1999.90;999.90;;;;;;;21.67;56.63;98957.91;4154929;28;20204;-47
2022/08/29 08:24:50;;;;;;;1999.90;999.90;;;;;;;21.52;56.71;98967.38;4160009;28;20212;-48
2022/08/29 08:26:52;;;;;;;1999.90;999.90;;;;;;;22.27;56.18;98964.91;4154816;28;20228;-48
2022/08/29 08:28:54;;;;;;;1999.90;999.90;;;;;;;22.48;54.77;98968.88;4160994;28;20212;-48
2022/08/29 08:30:58;;;;;;;1999.90;999.90;;;;;;;22.07;54.63;98973.75;4161032;28;20208;-47
2022/08/29 08:33:06;;;;;;;1999.90;999.90;;;;;;;22.10;54.57;98982.31;4161685;28;20211;-48
2022/08/29 08:35:08;;;;;;;1999.90;999.90;;;;;;;22.12;54.78;98970.84;4153257;28;20312;-47
2022/08/29 08:37:11;;;;;;;1999.90;999.90;;;;;;;22.31;53.96;98977.09;4151616;28;20236;-47
2022/08/29 08:39:20;;;;;;;1999.90;999.90;;;;;;;22.59;53.20;98970.31;4160705;28;20217;-47
2022/08/29 08:41:38;;;;;;;1999.90;999.90;;;;;;;22.52;52.99;98978.28;4160954;28;20223;-48
2022/08/29 08:43:48;;;;;;;1999.90;999.90;;;;;;;22.35;54.28;98976.16;4140202;28;20212;-47
2022/08/29 08:45:50;;;;;;;1999.90;999.90;;;;;;;22.48;53.81;98977.25;4161693;28;20207;-48
2022/08/29 08:48:03;;;;;;;1999.90;999.90;;;;;;;22.42;52.99;98978.50;4173635;28;20259;-47
2022/08/29 08:50:40;;;;;;;1999.90;999.90;;;;;;;22.60;53.11;98983.94;4160159;28;20200;-47
2022/08/29 08:52:57;;;;;;;1999.90;999.90;;;;;;;22.72;53.09;98984.19;4141126;28;20232;-48
2022/08/29 08:55:08;;;;;;;1999.90;999.90;;;;;;;22.36;52.59;98979.75;4185789;28;20276;-48
2022/08/29 08:57:11;;;;;;;1999.90;999.90;;;;;;;22.01;54.46;98988.94;4149214;28;20250;-48
2022/08/29 08:59:19;;;;;;;1999.90;999.90;;;;;;;22.00;54.57;98984.50;4170312;28;20744;-47
2022/08/29 09:01:26;;;;;;;1999.90;999.90;;;;;;;22.54;55.03;98989.94;4150178;28;20204;-47
2022/08/29 09:03:55;;;;;;;1999.90;999.90;;;;;;;22.94;52.71;98988.94;4150735;28;20291;-47
2022/08/29 09:06:06;;;;;;;1999.90;999.90;;;;;;;23.44;52.37;98988.41;4168022;28;20307;-47
2022/08/29 09:08:40;;;;;;;1999.90;999.90;;;;;;;23.63;51.60;98989.00;4183972;28;20231;-48
2022/08/29 09:10:55;;;;;;;1999.90;999.90;;;;;;;23.66;51.66;98990.31;4158878;28;20282;-47
2022/08/29 09:13:14;;;;;;;1999.90;999.90;;;;;;;23.51;52.53;98987.97;4160033;28;20578;-48